Latest Weather Observations for Stenhouse Bay

IDS60801

Issued at 5:31 pm CST Sunday 26 June 2016 (issued every 30 minutes, with the page automatically refreshed every 10 minutes)

About weather observations | Map of weather stations | Latest weather observations for SA | Other Formats
Station Details ID: 022049 Name: STENHOUSE BAY Lat: -35.28 Lon: 136.94 Height: 42.0 m
Data from the previous 72 hours. | See also: Recent months at Stenhouse Bay
Date/Time
CST
Temp
°C
App
Temp
°C
Dew
Point
°C
Rel
Hum
%
Delta-T
°C
Wind Press
QNH
hPa
Press
MSL
hPa
Rain since
9am
mm
Dir  Spd
km/h
Gust
km/h
Spd
kts
Gust
kts
26/05:30pm 12.3 8.6 9.5 83 1.4 NW 19 26 10 14 1014.8 1014.8 0.0
26/05:00pm 12.6 9.6 9.2 80 1.7 NNW 15 22 8 12 1014.6 1014.6 0.0
26/04:30pm 12.8 8.9 8.7 76 2.1 NW 19 28 10 15 1014.4 1014.4 0.0
26/04:00pm 13.1 9.0 8.8 75 2.2 NW 20 28 11 15 1014.3 1014.3 0.0
26/03:30pm 13.9 10.0 9.5 75 2.3 NW 20 30 11 16 1014.2 1014.2 0.0
26/03:00pm 13.7 9.2 8.7 72 2.5 NW 22 32 12 17 1014.2 1014.2 0.0
26/02:30pm 14.2 10.2 9.2 72 2.6 NNW 20 30 11 16 1014.3 1014.3 0.0
26/02:00pm 14.3 9.9 9.1 71 2.7 NW 22 32 12 17 1014.6 1014.6 0.0
26/01:30pm 13.6 8.9 9.1 74 2.3 NW 24 32 13 17 1014.9 1014.9 0.0
26/01:00pm 14.2 10.0 8.2 67 3.0 NW 20 28 11 15 1015.0 1015.0 0.0
26/12:30pm 13.6 8.8 7.4 66 3.0 NW 22 32 12 17 1015.3 1015.3 0.0
26/12:00pm 13.4 8.7 7.8 69 2.8 NW 22 32 12 17 1015.7 1015.7 0.0
26/11:30am 13.4 8.6 7.4 67 2.9 NW 22 32 12 17 1016.2 1016.2 0.0
26/11:00am 14.2 10.1 8.6 69 2.8 NNW 20 28 11 15 1016.5 1016.5 0.0
26/10:30am 13.3 8.5 7.5 68 2.8 NNW 22 30 12 16 1016.8 1016.8 0.0
26/10:00am 12.8 7.3 7.5 70 2.6 NNW 26 35 14 19 1016.8 1016.8 0.0
26/09:30am 13.2 8.4 7.4 68 2.8 NNW 22 32 12 17 1016.9 1016.9 0.0
26/09:00am 12.3 8.5 7.6 73 2.3 NNW 17 22 9 12 1016.9 1016.9 1.0
26/08:30am 11.3 7.0 7.0 75 2.0 NNW 19 28 10 15 1016.9 1016.9 1.0
26/08:00am 11.0 6.1 7.1 77 1.9 NNW 22 32 12 17 1016.7 1016.7 1.0
26/07:30am 10.6 7.2 7.8 83 1.4 NNW 15 20 8 11 1016.7 1016.7 1.0
26/07:00am 9.5 6.9 7.8 89 0.8 NNW 11 20 6 11 1016.7 1016.7 1.0
26/06:30am 9.0 7.3 7.5 90 0.7 N 6 7 3 4 1016.7 1016.7 1.0
26/06:00am 9.1 6.8 7.4 89 0.8 NNW 9 13 5 7 1016.7 1016.7 1.0
26/05:30am 8.7 7.1 7.8 94 0.4 NNE 6 9 3 5 1016.5 1016.5 1.0
26/05:00am 9.0 7.2 7.9 93 0.5 N 7 9 4 5 1016.7 1016.7 1.0
26/04:30am 9.0 7.2 7.9 93 0.5 NNW 7 13 4 7 1017.0 1017.0 1.0
26/04:00am 9.3 7.2 8.1 92 0.6 NW 9 13 5 7 1017.3 1017.3 1.0
26/03:30am 9.5 4.2 8.6 94 0.4 NW 26 33 14 18 1017.8 1017.8 1.0
26/03:00am 9.3 6.7 9.2 99 0.0 N 13 20 7 11 1017.9 1017.9 1.0
26/02:30am 9.4 5.5 9.3 99 0.0 NNW 20 28 11 15 1017.9 1017.9 1.0
26/02:00am 9.6 6.7 9.6 100 0.0 NNW 15 26 8 14 1018.1 1018.1 1.0
26/01:30am 9.1 7.2 9.1 100 0.0 N 9 13 5 7 1018.2 1018.2 1.0
26/01:00am 9.1 7.2 9.1 100 0.0 N 9 17 5 9 1018.7 1018.7 1.0
26/12:30am 9.3 8.0 9.3 100 0.0 NNW 6 7 3 4 1018.8 1018.8 0.8
26/12:00am 9.9 6.0 9.4 97 0.2 N 20 30 11 16 1019.0 1019.0 0.8
 
Date/Time
CST
Temp
°C
App
Temp
°C
Dew
Point
°C
Rel
Hum
%
Delta-T
°C
Wind Press
QNH
hPa
Press
MSL
hPa
Rain since
9am
mm
Dir  Spd
km/h
Gust
km/h
Spd
kts
Gust
kts
25/11:30pm 10.1 6.9 8.4 89 0.8 N 15 19 8 10 1019.0 1019.0 0.8
25/11:00pm 9.2 6.6 7.6 90 0.8 N 11 13 6 7 1019.3 1019.3 0.8
25/10:30pm 8.5 6.0 6.6 88 0.9 NNE 9 11 5 6 1019.3 1019.3 0.8
25/10:00pm 8.9 6.0 6.5 85 1.1 N 11 15 6 8 1019.6 1019.6 0.8
25/09:30pm 9.1 6.7 7.1 87 0.9 N 9 13 5 7 1019.7 1019.7 0.8
25/09:00pm 9.4 7.0 7.0 85 1.1 N 9 13 5 7 1019.8 1019.8 0.8
25/08:30pm 9.9 6.8 7.3 84 1.2 N 13 17 7 9 1019.8 1019.8 0.8
25/08:00pm 10.0 7.7 7.6 85 1.1 N 9 15 5 8 1020.1 1020.1 0.8
25/07:30pm 10.4 8.1 7.6 83 1.3 N 9 13 5 7 1020.3 1020.3 0.8
25/07:00pm 10.4 7.4 7.5 82 1.4 N 13 15 7 8 1020.7 1020.7 0.8
25/06:30pm 10.7 7.4 7.9 83 1.4 N 15 20 8 11 1020.7 1020.7 0.8
25/06:00pm 10.4 7.4 7.8 84 1.3 N 13 17 7 9 1020.3 1020.3 0.8
25/05:30pm 10.7 8.1 7.9 83 1.4 N 11 19 6 10 1020.3 1020.3 0.8
25/05:00pm 11.1 7.7 7.8 80 1.6 N 15 19 8 10 1020.5 1020.5 0.8
25/04:30pm 11.4 8.1 8.1 80 1.6 N 15 20 8 11 1020.5 1020.5 0.8
25/04:00pm 11.8 8.5 8.1 78 1.8 NNW 15 22 8 12 1020.6 1020.6 0.8
25/03:30pm 12.7 8.5 8.2 74 2.2 NNW 20 32 11 17 1020.9 1020.9 0.8
25/03:00pm 12.8 9.4 9.3 79 1.8 NNW 17 24 9 13 1020.9 1020.9 0.8
25/02:30pm 12.0 9.3 10.2 89 0.9 N 15 24 8 13 1021.2 1021.2 0.8
25/02:00pm 12.1 8.5 9.8 86 1.2 NNW 19 26 10 14 1021.5 1021.5 0.8
25/01:30pm 12.9 9.2 10.3 84 1.3 NNW 20 28 11 15 1021.7 1021.7 0.8
25/01:00pm 13.3 9.6 11.4 88 1.0 N 22 32 12 17 1022.1 1022.1 0.8
25/12:30pm 12.3 9.7 12.1 99 0.1 N 17 24 9 13 1022.5 1022.5 0.8
25/12:00pm 12.5 9.7 12.5 100 0.0 NNE 19 22 10 12 1023.1 1023.1 0.8
25/11:30am 11.8 10.7 11.8 100 0.0 NNE 9 13 5 7 1023.4 1023.4 0.8
25/11:00am 11.8 9.9 11.8 100 0.0 NNE 13 17 7 9 1023.8 1023.8 0.8
25/10:30am 11.7 10.5 11.7 100 0.0 N 9 13 5 7 1024.0 1024.0 0.8
25/10:00am 10.2 8.2 10.2 100 0.0 N 11 17 6 9 1024.2 1024.2 0.8
25/09:30am 9.4 6.8 9.4 100 0.0 NNE 13 17 7 9 1023.9 1023.9 0.6
25/09:00am 9.7 7.6 9.7 100 0.0 N 11 17 6 9 1023.7 1023.7 1.8
25/08:30am 8.8 6.4 8.8 100 0.0 NNE 11 15 6 8 1023.7 1023.7 1.8
25/08:00am 8.4 5.9 8.4 100 0.0 N 11 13 6 7 1023.8 1023.8 1.6
25/07:30am 6.8 3.6 6.8 100 0.0 N 13 19 7 10 1023.5 1023.5 1.6
25/07:00am 6.5 3.2 6.5 100 0.0 N 13 15 7 8 1023.4 1023.4 1.6
25/06:30am 6.7 4.2 6.7 100 0.0 N 9 13 5 7 1023.1 1023.1 1.6
25/06:00am 6.8 4.4 6.8 100 0.0 N 9 9 5 5 1022.9 1022.9 1.6
25/05:30am 7.1 5.1 7.1 100 0.0 N 7 9 4 5 1022.8 1022.8 1.6
25/05:00am 7.5 5.6 7.5 100 0.0 N 7 9 4 5 1022.8 1022.8 1.6
25/04:30am 8.4 6.9 8.4 100 0.0 NNE 6 7 3 4 1022.9 1022.9 1.6
25/04:00am 8.9 7.5 8.9 100 0.0 NE 6 7 3 4 1023.0 1023.0 1.6
25/03:30am 8.6 7.5 8.6 100 0.0 NNW 4 6 2 3 1023.0 1023.0 1.6
25/03:00am 8.6 7.5 8.6 100 0.0 NNW 4 6 2 3 1023.0 1023.0 1.6
25/02:30am 8.5 7.0 8.5 100 0.0 N 6 6 3 3 1023.1 1023.1 1.6
25/02:00am 8.7 8.4 8.7 100 0.0 CALM 0 0 0 0 1023.1 1023.1 1.6
25/01:30am 8.6 6.6 8.6 100 0.0 W 9 13 5 7 1023.1 1023.1 1.2
25/01:00am 8.2 6.6 8.2 100 0.0 NW 6 6 3 3 1022.8 1022.8 1.0
25/12:30am 8.4 7.3 8.4 100 0.0 NNW 4 6 2 3 1022.7 1022.7 1.0
25/12:00am 8.7 8.0 8.7 100 0.0 N 2 4 1 2 1022.7 1022.7 1.0
 
Date/Time
CST
Temp
°C
App
Temp
°C
Dew
Point
°C
Rel
Hum
%
Delta-T
°C
Wind Press
QNH
hPa
Press
MSL
hPa
Rain since
9am
mm
Dir  Spd
km/h
Gust
km/h
Spd
kts
Gust
kts
24/11:30pm 8.7 7.7 8.7 100 0.0 N 4 4 2 2 1022.6 1022.6 1.0
24/11:00pm 9.4 8.9 9.4 100 0.0 NNE 2 4 1 2 1022.8 1022.8 1.0
24/10:30pm 9.7 7.2 9.7 100 0.0 W 13 15 7 8 1022.9 1022.9 0.8
24/10:00pm 10.4 10.1 10.2 99 0.1 SSW 2 6 1 3 1022.8 1022.8 0.8
24/09:30pm 10.2 9.1 10.1 99 0.1 SSW 6 7 3 4 1022.7 1022.7 0.8
24/09:00pm 10.2 7.8 10.1 99 0.1 S 13 20 7 11 1022.6 1022.6 0.8
24/08:30pm 10.1 8.1 10.0 99 0.1 SSW 11 17 6 9 1022.5 1022.5 0.8
24/08:00pm 11.9 8.7 10.0 88 1.0 SSW 17 24 9 13 1022.3 1022.3 0.2
24/07:30pm 11.6 7.9 9.3 86 1.2 SSE 19 24 10 13 1021.7 1021.7 0.2
24/07:00pm 11.5 7.9 8.4 81 1.5 SSW 17 24 9 13 1021.4 1021.4 0.2
24/06:30pm 11.1 8.2 9.5 90 0.8 SSW 15 22 8 12 1021.0 1021.0 0.2
24/06:00pm 11.7 7.9 8.9 83 1.4 SW 19 32 10 17 1020.7 1020.7 0.2
24/05:30pm 10.9 8.3 9.5 91 0.7 SW 13 26 7 14 1020.1 1020.1 0.2
24/05:00pm 11.4 7.0 9.1 86 1.2 SSW 22 28 12 15 1019.7 1019.7 0.2
24/04:30pm 11.2 8.2 9.3 88 0.9 SSW 15 24 8 13 1019.4 1019.4 0.2
24/04:00pm 11.5 7.4 10.1 91 0.7 SW 22 37 12 20 1019.0 1019.0 0.2
24/03:30pm 12.1 7.4 9.3 83 1.4 SW 24 33 13 18 1018.5 1018.5 0.2
24/03:00pm 12.8 7.8 9.4 80 1.7 SSW 26 39 14 21 1018.2 1018.2 0.2
24/02:30pm 11.8 5.2 9.9 88 1.0 SSW 35 54 19 29 1017.8 1017.8 0.2
24/02:25pm 12.3 7.0 9.9 85 1.2 SW 28 54 15 29 1017.7 1017.7 0.2
24/02:00pm 12.0 6.3 8.3 78 1.8 SW 28 43 15 23 1017.7 1017.7 0.2
24/01:35pm 11.9 6.7 10.3 90 0.8 SW 28 50 15 27 1017.8 1017.8 0.0
24/01:30pm 13.0 8.3 9.1 77 2.0 SW 24 35 13 19 1017.7 1017.7 0.0
24/01:00pm 12.3 5.0 7.4 72 2.4 SW 35 46 19 25 1017.7 1017.7 0.0
24/12:30pm 12.0 6.1 7.5 74 2.2 SW 28 44 15 24 1017.5 1017.5 0.0
24/12:00pm 12.4 5.0 8.3 76 2.0 SW 37 59 20 32 1017.3 1017.3 0.0
24/11:59am 12.7 5.7 8.6 76 2.0 SW 35 59 19 32 1017.3 1017.3 0.0
24/11:30am 12.7 5.0 5.4 61 3.4 SW 35 48 19 26 1017.3 1017.3 0.0
24/11:00am 12.4 6.5 7.5 72 2.4 SW 28 39 15 21 1017.3 1017.3 0.0
24/10:43am 12.2 6.3 7.7 74 2.2 SW 28 46 15 25 1017.2 1017.2 0.0
24/10:30am 11.4 4.0 8.3 81 1.5 SSW 37 54 20 29 1017.1 1017.1 0.0
24/10:00am 11.6 3.2 5.7 67 2.7 SW 39 57 21 31 1016.3 1016.3 0.0
24/09:30am 11.4 4.0 8.4 82 1.5 SW 37 67 20 36 1015.7 1015.7 0.0
24/09:05am 11.1 3.5 7.4 78 1.8 SW 37 56 20 30 1015.1 1015.1 0.0
24/09:00am 10.8 2.6 6.4 74 2.1 SW 39 56 21 30 1015.0 1015.0 6.8
24/08:49am 10.8 2.2 4.7 66 2.8 SW 39 59 21 32 1014.6 1014.6 6.8
24/08:30am 11.3 2.3 4.7 64 3.0 SW 41 57 22 31 1014.1 1014.1 6.8
24/08:06am 10.9 2.8 7.0 77 1.9 SW 39 63 21 34 1013.7 1013.7 6.8
24/08:00am 10.6 2.2 7.5 81 1.5 SW 41 56 22 30 1013.5 1013.5 6.8
24/07:34am 11.3 2.5 5.4 67 2.7 SW 41 63 22 34 1012.9 1012.9 6.8
24/07:30am 11.1 2.2 5.2 67 2.7 SW 41 59 22 32 1012.9 1012.9 6.8
24/07:00am 9.6 0.8 7.4 86 1.0 SW 43 69 23 37 1012.4 1012.4 6.8
24/06:30am 9.3 1.5 8.2 93 0.5 SW 39 57 21 31 1012.0 1012.0 6.6
24/06:16am 10.7 1.1 7.8 82 1.4 SW 48 80 26 43 1011.3 1011.3 6.4
24/06:00am 10.2 3.1 9.6 96 0.3 SW 37 57 20 31 1010.9 1010.9 6.4
24/05:36am 9.8 0.8 8.7 93 0.5 SW 46 67 25 36 1010.6 1010.6 6.2
24/05:30am 10.2 0.8 7.1 81 1.5 SW 46 59 25 32 1010.5 1010.5 6.2
24/05:00am 10.9 1.1 7.0 77 1.9 WSW 48 67 26 36 1009.8 1009.8 6.2
24/04:34am 10.4 2.2 8.2 86 1.1 SW 41 61 22 33 1009.3 1009.3 6.2
24/04:30am 10.6 2.9 6.9 78 1.8 WSW 37 54 20 29 1009.4 1009.4 6.2
24/04:03am 9.7 0.6 6.6 81 1.4 SW 44 65 24 35 1009.3 1009.3 6.2
24/04:00am 9.8 0.3 6.7 81 1.5 SW 46 65 25 35 1009.3 1009.3 6.2
24/03:31am 10.2 0.9 6.0 75 1.9 SW 44 63 24 34 1009.0 1009.0 6.2
24/03:30am 10.3 0.8 6.6 78 1.7 SW 46 63 25 34 1008.9 1008.9 6.2
24/03:00am 10.0 -0.8 7.6 85 1.2 SW 54 83 29 45 1008.1 1008.0 6.2
24/02:30am 10.7 0.2 7.2 79 1.7 SW 52 76 28 41 1007.7 1007.6 6.2
24/02:00am 10.4 0.1 4.8 68 2.5 WSW 48 82 26 44 1007.0 1006.9 6.2
24/01:30am 10.6 -0.5 6.4 75 2.0 WSW 54 80 29 43 1006.4 1006.3 6.2
24/01:00am 8.7 -0.2 7.5 92 0.6 WSW 44 72 24 39 1006.5 1006.4 5.8
24/12:30am 9.6 1.2 9.5 99 0.0 WSW 44 65 24 35 1006.0 1006.0 5.8
24/12:01am 9.6 1.9 8.7 94 0.4 WSW 39 67 21 36 1006.1 1006.1 5.2
24/12:00am 9.4 2.0 8.5 94 0.4 W 37 54 20 29 1005.9 1005.9 5.2
 
Date/Time
CST
Temp
°C
App
Temp
°C
Dew
Point
°C
Rel
Hum
%
Delta-T
°C
Wind Press
QNH
hPa
Press
MSL
hPa
Rain since
9am
mm
Dir  Spd
km/h
Gust
km/h
Spd
kts
Gust
kts
23/11:30pm 8.0 0.9 7.9 99 0.0 W 35 61 19 33 1006.3 1006.2 5.2
23/11:00pm 9.0 -0.2 8.2 95 0.4 W 46 74 25 40 1006.7 1006.6 4.4
23/10:58pm 9.3 0.4 7.7 90 0.8 W 44 74 24 40 1006.5 1006.4 4.2
23/10:38pm 11.5 5.1 5.4 66 2.8 W 28 52 15 28 1005.4 1005.4 4.0
23/10:30pm 11.6 4.5 5.7 67 2.8 W 32 48 17 26 1005.2 1005.2 4.0
23/10:02pm 11.5 4.6 6.4 71 2.4 W 32 50 17 27 1005.1 1005.1 4.0
23/10:00pm 11.7 5.1 6.0 68 2.7 W 30 44 16 24 1005.1 1005.1 4.0
23/09:30pm 11.1 4.2 6.5 73 2.2 W 32 48 17 26 1005.2 1005.2 4.0
23/09:06pm 11.3 4.0 5.6 68 2.6 WSW 33 52 18 28 1005.1 1005.1 4.0
23/09:00pm 11.4 3.4 5.7 68 2.7 WSW 37 54 20 29 1005.0 1005.0 4.0
23/08:30pm 11.4 3.8 5.9 69 2.6 WSW 35 57 19 31 1004.7 1004.7 4.0
23/08:00pm 11.2 4.1 6.3 72 2.3 WSW 33 52 18 28 1004.5 1004.5 4.0
23/07:34pm 11.0 3.1 7.7 80 1.6 WSW 39 59 21 32 1004.1 1004.1 4.0
23/07:30pm 11.1 2.9 8.0 81 1.5 WSW 41 59 22 32 1004.1 1004.1 4.0
23/07:08pm 10.6 4.6 8.5 87 1.0 W 30 48 16 26 1003.8 1003.8 4.0
23/07:00pm 10.2 4.4 8.1 87 1.0 W 28 44 15 24 1003.7 1003.7 4.0
23/06:30pm 9.5 3.4 8.4 93 0.5 W 30 44 16 24 1003.7 1003.7 4.0
23/06:02pm 8.6 1.9 8.3 98 0.1 W 33 56 18 30 1003.5 1003.5 4.0
23/06:00pm 8.4 1.7 8.1 98 0.1 WSW 33 48 18 26 1003.5 1003.5 4.0

Other Formats:

Comma delimited format used in spreadsheet applications
http://www.bom.gov.au/fwo/IDS60801/IDS60801.95806.axf

JavaScript Object Notation format (JSON) in row-major order
http://www.bom.gov.au/fwo/IDS60801/IDS60801.95806.json